sensor_id;sensor_type;location;lat;lon;timestamp;temperature;humidity
65207;SHT31;58477;48.072;11.970;2023-11-18T00:00:25;3.62;99.99
65207;SHT31;58477;48.072;11.970;2023-11-18T00:02:51;3.70;99.99
65207;SHT31;58477;48.072;11.970;2023-11-18T00:05:16;3.71;99.99
65207;SHT31;58477;48.072;11.970;2023-11-18T00:07:43;3.68;99.99
65207;SHT31;58477;48.072;11.970;2023-11-18T00:10:09;3.68;99.99
65207;SHT31;58477;48.072;11.970;2023-11-18T00:12:35;3.64;99.99
65207;SHT31;58477;48.072;11.970;2023-11-18T00:15:04;3.71;99.99
65207;SHT31;58477;48.072;11.970;2023-11-18T00:17:30;3.64;99.99
65207;SHT31;58477;48.072;11.970;2023-11-18T00:19:56;3.61;99.99
65207;SHT31;58477;48.072;11.970;2023-11-18T00:22:22;3.57;99.99
65207;SHT31;58477;48.072;11.970;2023-11-18T00:24:47;3.55;99.99
65207;SHT31;58477;48.072;11.970;2023-11-18T00:27:13;3.58;99.99
65207;SHT31;58477;48.072;11.970;2023-11-18T00:29:38;3.57;99.99
65207;SHT31;58477;48.072;11.970;2023-11-18T00:32:04;3.64;99.99
65207;SHT31;58477;48.072;11.970;2023-11-18T00:34:30;3.61;99.99
65207;SHT31;58477;48.072;11.970;2023-11-18T00:36:56;3.61;99.99
65207;SHT31;58477;48.072;11.970;2023-11-18T00:39:23;3.67;99.99
65207;SHT31;58477;48.072;11.970;2023-11-18T00:41:49;3.65;99.99
65207;SHT31;58477;48.072;11.970;2023-11-18T00:44:14;3.71;99.99
65207;SHT31;58477;48.072;11.970;2023-11-18T00:46:40;3.65;99.99
65207;SHT31;58477;48.072;11.970;2023-11-18T00:49:05;3.67;99.99
65207;SHT31;58477;48.072;11.970;2023-11-18T00:51:31;3.65;99.99
65207;SHT31;58477;48.072;11.970;2023-11-18T00:53:57;3.67;99.99
65207;SHT31;58477;48.072;11.970;2023-11-18T00:56:22;3.65;99.99
65207;SHT31;58477;48.072;11.970;2023-11-18T00:58:48;3.70;99.99
65207;SHT31;58477;48.072;11.970;2023-11-18T01:01:14;3.75;99.99
65207;SHT31;58477;48.072;11.970;2023-11-18T01:03:44;3.72;99.99
65207;SHT31;58477;48.072;11.970;2023-11-18T01:06:09;3.72;99.99
65207;SHT31;58477;48.072;11.970;2023-11-18T01:08:35;3.72;99.99
65207;SHT31;58477;48.072;11.970;2023-11-18T01:11:00;3.65;99.99
65207;SHT31;58477;48.072;11.970;2023-11-18T01:13:26;3.65;99.99
65207;SHT31;58477;48.072;11.970;2023-11-18T01:15:52;3.67;99.99
65207;SHT31;58477;48.072;11.970;2023-11-18T01:18:17;3.57;99.99
65207;SHT31;58477;48.072;11.970;2023-11-18T01:20:43;3.58;99.99
65207;SHT31;58477;48.072;11.970;2023-11-18T01:23:09;3.65;99.99
65207;SHT31;58477;48.072;11.970;2023-11-18T01:25:35;3.71;99.99
65207;SHT31;58477;48.072;11.970;2023-11-18T01:28:00;3.67;99.99
65207;SHT31;58477;48.072;11.970;2023-11-18T01:30:26;3.70;99.99
65207;SHT31;58477;48.072;11.970;2023-11-18T01:32:52;3.68;99.99
65207;SHT31;58477;48.072;11.970;2023-11-18T01:35:18;3.75;99.99
65207;SHT31;58477;48.072;11.970;2023-11-18T01:37:44;3.65;99.99
65207;SHT31;58477;48.072;11.970;2023-11-18T01:40:10;3.62;99.99
65207;SHT31;58477;48.072;11.970;2023-11-18T01:42:46;3.62;99.99
65207;SHT31;58477;48.072;11.970;2023-11-18T01:45:12;3.60;99.99
65207;SHT31;58477;48.072;11.970;2023-11-18T01:47:40;3.61;99.99
65207;SHT31;58477;48.072;11.970;2023-11-18T01:50:08;3.62;99.99
65207;SHT31;58477;48.072;11.970;2023-11-18T01:52:34;3.67;99.99
65207;SHT31;58477;48.072;11.970;2023-11-18T01:55:01;3.71;99.99
65207;SHT31;58477;48.072;11.970;2023-11-18T01:57:29;3.71;99.99
65207;SHT31;58477;48.072;11.970;2023-11-18T01:59:55;3.68;99.99
65207;SHT31;58477;48.072;11.970;2023-11-18T02:02:21;3.71;99.99
65207;SHT31;58477;48.072;11.970;2023-11-18T02:04:47;3.70;99.99
65207;SHT31;58477;48.072;11.970;2023-11-18T02:07:13;3.74;99.99
65207;SHT31;58477;48.072;11.970;2023-11-18T02:09:41;3.74;99.99
65207;SHT31;58477;48.072;11.970;2023-11-18T02:12:21;3.72;99.99
65207;SHT31;58477;48.072;11.970;2023-11-18T02:14:49;3.71;99.99
65207;SHT31;58477;48.072;11.970;2023-11-18T02:17:20;3.77;99.99
65207;SHT31;58477;48.072;11.970;2023-11-18T02:19:48;3.79;99.99
65207;SHT31;58477;48.072;11.970;2023-11-18T02:22:14;3.79;99.99
65207;SHT31;58477;48.072;11.970;2023-11-18T02:24:40;3.75;99.99
65207;SHT31;58477;48.072;11.970;2023-11-18T02:27:06;3.75;99.99
65207;SHT31;58477;48.072;11.970;2023-11-18T02:29:34;3.74;99.99
65207;SHT31;58477;48.072;11.970;2023-11-18T02:34:51;3.75;99.99
65207;SHT31;58477;48.072;11.970;2023-11-18T02:37:18;3.81;99.99
65207;SHT31;58477;48.072;11.970;2023-11-18T02:39:48;3.79;99.99
65207;SHT31;58477;48.072;11.970;2023-11-18T02:42:17;3.75;99.99
65207;SHT31;58477;48.072;11.970;2023-11-18T02:44:43;3.82;99.99
65207;SHT31;58477;48.072;11.970;2023-11-18T02:47:09;3.78;99.99
65207;SHT31;58477;48.072;11.970;2023-11-18T02:49:36;3.72;99.99
65207;SHT31;58477;48.072;11.970;2023-11-18T02:52:01;3.72;99.99
65207;SHT31;58477;48.072;11.970;2023-11-18T02:54:27;3.67;99.99
65207;SHT31;58477;48.072;11.970;2023-11-18T02:56:53;3.71;99.99
65207;SHT31;58477;48.072;11.970;2023-11-18T02:59:20;3.74;99.99
65207;SHT31;58477;48.072;11.970;2023-11-18T03:01:46;3.68;99.99
65207;SHT31;58477;48.072;11.970;2023-11-18T03:04:11;3.70;99.99
65207;SHT31;58477;48.072;11.970;2023-11-18T03:06:39;3.77;99.99
65207;SHT31;58477;48.072;11.970;2023-11-18T03:09:05;3.74;99.99
65207;SHT31;58477;48.072;11.970;2023-11-18T03:11:33;3.72;99.99
65207;SHT31;58477;48.072;11.970;2023-11-18T03:13:58;3.72;99.99
65207;SHT31;58477;48.072;11.970;2023-11-18T03:16:24;3.75;99.99
65207;SHT31;58477;48.072;11.970;2023-11-18T03:18:50;3.83;99.99
65207;SHT31;58477;48.072;11.970;2023-11-18T03:21:15;3.71;99.99
65207;SHT31;58477;48.072;11.970;2023-11-18T03:23:41;3.72;99.99
65207;SHT31;58477;48.072;11.970;2023-11-18T03:26:10;3.81;99.99
65207;SHT31;58477;48.072;11.970;2023-11-18T03:28:36;3.86;99.99
65207;SHT31;58477;48.072;11.970;2023-11-18T03:31:05;3.86;99.99
65207;SHT31;58477;48.072;11.970;2023-11-18T03:33:31;3.83;99.99
65207;SHT31;58477;48.072;11.970;2023-11-18T03:35:56;3.81;99.99
65207;SHT31;58477;48.072;11.970;2023-11-18T03:38:22;3.75;99.99
65207;SHT31;58477;48.072;11.970;2023-11-18T03:40:49;3.77;99.99
65207;SHT31;58477;48.072;11.970;2023-11-18T03:43:14;3.75;99.99
65207;SHT31;58477;48.072;11.970;2023-11-18T03:45:40;3.77;99.99
65207;SHT31;58477;48.072;11.970;2023-11-18T03:48:07;3.70;99.99
65207;SHT31;58477;48.072;11.970;2023-11-18T03:50:35;3.75;99.99
65207;SHT31;58477;48.072;11.970;2023-11-18T03:53:00;3.72;99.99
65207;SHT31;58477;48.072;11.970;2023-11-18T03:55:29;3.72;99.99
65207;SHT31;58477;48.072;11.970;2023-11-18T03:57:55;3.71;99.99
65207;SHT31;58477;48.072;11.970;2023-11-18T04:00:22;3.75;99.99
65207;SHT31;58477;48.072;11.970;2023-11-18T04:02:47;3.83;99.99
65207;SHT31;58477;48.072;11.970;2023-11-18T04:05:13;3.83;99.99
65207;SHT31;58477;48.072;11.970;2023-11-18T04:07:38;3.77;99.99
65207;SHT31;58477;48.072;11.970;2023-11-18T04:10:08;3.75;99.99
65207;SHT31;58477;48.072;11.970;2023-11-18T04:12:35;3.78;99.99
65207;SHT31;58477;48.072;11.970;2023-11-18T04:15:01;3.85;99.99
65207;SHT31;58477;48.072;11.970;2023-11-18T04:17:26;3.78;99.99
65207;SHT31;58477;48.072;11.970;2023-11-18T04:19:53;3.78;99.99
65207;SHT31;58477;48.072;11.970;2023-11-18T04:22:21;3.83;99.99
65207;SHT31;58477;48.072;11.970;2023-11-18T04:24:47;3.85;99.99
65207;SHT31;58477;48.072;11.970;2023-11-18T04:27:12;3.85;99.99
65207;SHT31;58477;48.072;11.970;2023-11-18T04:29:38;3.83;99.99
65207;SHT31;58477;48.072;11.970;2023-11-18T04:32:06;3.81;99.99
65207;SHT31;58477;48.072;11.970;2023-11-18T04:34:35;3.82;99.99
65207;SHT31;58477;48.072;11.970;2023-11-18T04:37:01;3.88;99.99
65207;SHT31;58477;48.072;11.970;2023-11-18T04:39:27;3.88;99.99
65207;SHT31;58477;48.072;11.970;2023-11-18T04:41:53;3.89;99.99
65207;SHT31;58477;48.072;11.970;2023-11-18T04:44:19;3.91;99.99
65207;SHT31;58477;48.072;11.970;2023-11-18T04:46:44;3.86;99.99
65207;SHT31;58477;48.072;11.970;2023-11-18T04:49:10;3.95;99.99
65207;SHT31;58477;48.072;11.970;2023-11-18T04:51:35;3.88;99.99
65207;SHT31;58477;48.072;11.970;2023-11-18T04:54:01;3.95;99.99
65207;SHT31;58477;48.072;11.970;2023-11-18T04:56:28;3.85;99.99
65207;SHT31;58477;48.072;11.970;2023-11-18T04:58:54;3.89;99.99
65207;SHT31;58477;48.072;11.970;2023-11-18T05:01:19;3.82;99.99
65207;SHT31;58477;48.072;11.970;2023-11-18T05:03:45;3.82;99.99
65207;SHT31;58477;48.072;11.970;2023-11-18T05:06:10;3.85;99.99
65207;SHT31;58477;48.072;11.970;2023-11-18T05:08:35;3.85;99.99
65207;SHT31;58477;48.072;11.970;2023-11-18T05:11:01;3.82;99.99
65207;SHT31;58477;48.072;11.970;2023-11-18T05:13:27;3.88;99.99
65207;SHT31;58477;48.072;11.970;2023-11-18T05:15:52;3.82;99.99
65207;SHT31;58477;48.072;11.970;2023-11-18T05:18:19;3.81;99.99
65207;SHT31;58477;48.072;11.970;2023-11-18T05:20:45;3.88;99.99
65207;SHT31;58477;48.072;11.970;2023-11-18T05:23:11;3.86;99.99
65207;SHT31;58477;48.072;11.970;2023-11-18T05:25:39;3.85;99.99
65207;SHT31;58477;48.072;11.970;2023-11-18T05:28:05;3.82;99.99
65207;SHT31;58477;48.072;11.970;2023-11-18T05:30:37;3.82;99.99
65207;SHT31;58477;48.072;11.970;2023-11-18T05:33:03;3.92;99.99
65207;SHT31;58477;48.072;11.970;2023-11-18T05:35:34;3.95;99.99
65207;SHT31;58477;48.072;11.970;2023-11-18T05:38:00;3.89;99.99
65207;SHT31;58477;48.072;11.970;2023-11-18T05:40:28;3.99;99.99
65207;SHT31;58477;48.072;11.970;2023-11-18T05:42:54;3.91;99.99
65207;SHT31;58477;48.072;11.970;2023-11-18T05:45:20;3.79;99.99
65207;SHT31;58477;48.072;11.970;2023-11-18T05:47:57;3.75;99.99
65207;SHT31;58477;48.072;11.970;2023-11-18T05:50:23;3.74;99.99
65207;SHT31;58477;48.072;11.970;2023-11-18T05:52:52;3.74;99.99
65207;SHT31;58477;48.072;11.970;2023-11-18T05:55:18;3.71;99.99
65207;SHT31;58477;48.072;11.970;2023-11-18T05:57:43;3.72;99.99
65207;SHT31;58477;48.072;11.970;2023-11-18T06:00:14;3.68;99.99
65207;SHT31;58477;48.072;11.970;2023-11-18T06:02:43;3.70;99.99
65207;SHT31;58477;48.072;11.970;2023-11-18T06:05:09;3.78;99.99
65207;SHT31;58477;48.072;11.970;2023-11-18T06:07:35;3.75;99.99
65207;SHT31;58477;48.072;11.970;2023-11-18T06:10:01;3.75;99.99
65207;SHT31;58477;48.072;11.970;2023-11-18T06:12:30;3.77;99.99
65207;SHT31;58477;48.072;11.970;2023-11-18T06:14:56;3.74;99.99
65207;SHT31;58477;48.072;11.970;2023-11-18T06:17:22;3.74;99.99
65207;SHT31;58477;48.072;11.970;2023-11-18T06:19:48;3.79;99.99
65207;SHT31;58477;48.072;11.970;2023-11-18T06:22:14;3.71;99.99
65207;SHT31;58477;48.072;11.970;2023-11-18T06:24:40;3.70;99.99
65207;SHT31;58477;48.072;11.970;2023-11-18T06:27:06;3.71;99.99
65207;SHT31;58477;48.072;11.970;2023-11-18T06:29:32;3.64;99.99
65207;SHT31;58477;48.072;11.970;2023-11-18T06:31:58;3.65;99.99
65207;SHT31;58477;48.072;11.970;2023-11-18T06:34:23;3.72;99.99
65207;SHT31;58477;48.072;11.970;2023-11-18T06:36:48;3.71;99.99
65207;SHT31;58477;48.072;11.970;2023-11-18T06:39:14;3.71;99.99
65207;SHT31;58477;48.072;11.970;2023-11-18T06:41:39;3.74;99.99
65207;SHT31;58477;48.072;11.970;2023-11-18T06:44:14;3.74;99.99
65207;SHT31;58477;48.072;11.970;2023-11-18T06:46:43;3.71;99.99
65207;SHT31;58477;48.072;11.970;2023-11-18T06:49:09;3.74;99.99
65207;SHT31;58477;48.072;11.970;2023-11-18T06:51:40;3.72;99.99
65207;SHT31;58477;48.072;11.970;2023-11-18T06:54:07;3.72;99.99
65207;SHT31;58477;48.072;11.970;2023-11-18T06:56:37;3.78;99.99
65207;SHT31;58477;48.072;11.970;2023-11-18T06:59:07;3.78;99.99
65207;SHT31;58477;48.072;11.970;2023-11-18T07:01:34;3.77;99.99
65207;SHT31;58477;48.072;11.970;2023-11-18T07:04:00;3.86;99.99
65207;SHT31;58477;48.072;11.970;2023-11-18T07:06:26;3.81;99.99
65207;SHT31;58477;48.072;11.970;2023-11-18T07:08:53;3.86;99.99
65207;SHT31;58477;48.072;11.970;2023-11-18T07:11:19;3.86;99.99
65207;SHT31;58477;48.072;11.970;2023-11-18T07:13:48;3.83;99.99
65207;SHT31;58477;48.072;11.970;2023-11-18T07:16:23;3.86;99.99
65207;SHT31;58477;48.072;11.970;2023-11-18T07:18:48;3.91;99.99
65207;SHT31;58477;48.072;11.970;2023-11-18T07:21:14;3.93;99.99
65207;SHT31;58477;48.072;11.970;2023-11-18T07:23:39;3.95;99.99
65207;SHT31;58477;48.072;11.970;2023-11-18T07:26:05;3.95;99.99
65207;SHT31;58477;48.072;11.970;2023-11-18T07:28:30;4.05;99.99
65207;SHT31;58477;48.072;11.970;2023-11-18T07:30:56;4.05;99.99
65207;SHT31;58477;48.072;11.970;2023-11-18T07:33:23;4.02;99.99
65207;SHT31;58477;48.072;11.970;2023-11-18T07:35:48;4.12;99.99
65207;SHT31;58477;48.072;11.970;2023-11-18T07:38:15;4.12;99.73
65207;SHT31;58477;48.072;11.970;2023-11-18T07:40:41;4.15;99.99
65207;SHT31;58477;48.072;11.970;2023-11-18T07:43:13;4.23;99.64
65207;SHT31;58477;48.072;11.970;2023-11-18T07:45:39;4.12;99.86
65207;SHT31;58477;48.072;11.970;2023-11-18T07:50:50;4.25;99.51
65207;SHT31;58477;48.072;11.970;2023-11-18T07:53:16;4.23;99.58
65207;SHT31;58477;48.072;11.970;2023-11-18T07:55:41;4.26;99.99
65207;SHT31;58477;48.072;11.970;2023-11-18T08:00:47;4.32;99.54
65207;SHT31;58477;48.072;11.970;2023-11-18T08:03:14;4.22;99.47
65207;SHT31;58477;48.072;11.970;2023-11-18T08:05:42;4.32;99.95
65207;SHT31;58477;48.072;11.970;2023-11-18T08:08:10;4.42;99.83
65207;SHT31;58477;48.072;11.970;2023-11-18T08:12:39;4.45;99.20
65207;SHT31;58477;48.072;11.970;2023-11-18T08:15:06;4.47;99.46
65207;SHT31;58477;48.072;11.970;2023-11-18T08:17:35;4.59;99.28
65207;SHT31;58477;48.072;11.970;2023-11-18T08:20:00;4.59;98.77
65207;SHT31;58477;48.072;11.970;2023-11-18T08:22:26;4.56;98.85
65207;SHT31;58477;48.072;11.970;2023-11-18T08:24:51;4.61;99.17
65207;SHT31;58477;48.072;11.970;2023-11-18T08:27:17;4.67;98.97
65207;SHT31;58477;48.072;11.970;2023-11-18T08:29:43;4.80;98.85
65207;SHT31;58477;48.072;11.970;2023-11-18T08:32:08;4.91;98.40
65207;SHT31;58477;48.072;11.970;2023-11-18T08:34:35;4.94;98.42
65207;SHT31;58477;48.072;11.970;2023-11-18T08:37:06;5.00;98.10
65207;SHT31;58477;48.072;11.970;2023-11-18T08:39:32;5.24;97.85
65207;SHT31;58477;48.072;11.970;2023-11-18T08:41:58;5.38;97.72
65207;SHT31;58477;48.072;11.970;2023-11-18T08:44:23;5.63;97.07
65207;SHT31;58477;48.072;11.970;2023-11-18T08:46:49;5.60;96.31
65207;SHT31;58477;48.072;11.970;2023-11-18T08:49:18;5.54;96.41
65207;SHT31;58477;48.072;11.970;2023-11-18T08:51:50;5.41;95.75
65207;SHT31;58477;48.072;11.970;2023-11-18T08:54:22;5.46;96.40
65207;SHT31;58477;48.072;11.970;2023-11-18T08:56:53;5.52;96.62
65207;SHT31;58477;48.072;11.970;2023-11-18T08:59:20;5.62;96.08
65207;SHT31;58477;48.072;11.970;2023-11-18T09:01:55;5.54;96.37
65207;SHT31;58477;48.072;11.970;2023-11-18T09:04:22;5.59;96.32
65207;SHT31;58477;48.072;11.970;2023-11-18T09:06:49;5.58;95.99
65207;SHT31;58477;48.072;11.970;2023-11-18T09:09:14;5.69;95.33
65207;SHT31;58477;48.072;11.970;2023-11-18T09:11:41;5.60;95.31
65207;SHT31;58477;48.072;11.970;2023-11-18T09:14:07;5.93;95.89
65207;SHT31;58477;48.072;11.970;2023-11-18T09:16:32;5.87;94.80
65207;SHT31;58477;48.072;11.970;2023-11-18T09:19:03;5.90;94.64
65207;SHT31;58477;48.072;11.970;2023-11-18T09:21:32;5.77;94.63
65207;SHT31;58477;48.072;11.970;2023-11-18T09:24:00;5.79;94.50
65207;SHT31;58477;48.072;11.970;2023-11-18T09:26:30;5.97;94.15
65207;SHT31;58477;48.072;11.970;2023-11-18T09:28:56;6.06;94.73
65207;SHT31;58477;48.072;11.970;2023-11-18T09:31:22;6.13;94.18
65207;SHT31;58477;48.072;11.970;2023-11-18T09:33:48;6.05;94.01
65207;SHT31;58477;48.072;11.970;2023-11-18T09:36:18;6.30;94.48
65207;SHT31;58477;48.072;11.970;2023-11-18T09:38:44;6.20;94.09
65207;SHT31;58477;48.072;11.970;2023-11-18T09:41:12;6.30;94.70
65207;SHT31;58477;48.072;11.970;2023-11-18T09:43:42;6.10;93.63
65207;SHT31;58477;48.072;11.970;2023-11-18T09:46:14;5.80;94.23
65207;SHT31;58477;48.072;11.970;2023-11-18T09:48:43;6.06;94.60
65207;SHT31;58477;48.072;11.970;2023-11-18T09:51:15;6.00;94.63
65207;SHT31;58477;48.072;11.970;2023-11-18T09:53:44;6.21;94.40
65207;SHT31;58477;48.072;11.970;2023-11-18T09:56:19;6.64;92.75
65207;SHT31;58477;48.072;11.970;2023-11-18T09:59:05;6.91;91.67
65207;SHT31;58477;48.072;11.970;2023-11-18T10:01:35;7.06;90.84
65207;SHT31;58477;48.072;11.970;2023-11-18T10:04:06;6.99;90.49
65207;SHT31;58477;48.072;11.970;2023-11-18T10:06:35;7.45;90.41
65207;SHT31;58477;48.072;11.970;2023-11-18T10:09:02;8.71;86.16
65207;SHT31;58477;48.072;11.970;2023-11-18T10:35:59;8.18;85.94
65207;SHT31;58477;48.072;11.970;2023-11-18T10:38:32;9.16;84.21
65207;SHT31;58477;48.072;11.970;2023-11-18T10:41:02;8.59;85.05
65207;SHT31;58477;48.072;11.970;2023-11-18T10:43:28;10.82;81.89
65207;SHT31;58477;48.072;11.970;2023-11-18T10:46:08;11.71;77.58
65207;SHT31;58477;48.072;11.970;2023-11-18T10:48:45;11.36;74.17
65207;SHT31;58477;48.072;11.970;2023-11-18T10:51:14;11.36;74.00
65207;SHT31;58477;48.072;11.970;2023-11-18T10:53:47;10.42;76.73
65207;SHT31;58477;48.072;11.970;2023-11-18T10:56:22;10.04;77.54
65207;SHT31;58477;48.072;11.970;2023-11-18T10:59:12;8.83;79.44
65207;SHT31;58477;48.072;11.970;2023-11-18T11:01:42;9.16;80.20
65207;SHT31;58477;48.072;11.970;2023-11-18T11:04:11;8.34;82.36
65207;SHT31;58477;48.072;11.970;2023-11-18T11:06:44;7.73;83.43
65207;SHT31;58477;48.072;11.970;2023-11-18T11:09:22;7.20;84.82
65207;SHT31;58477;48.072;11.970;2023-11-18T11:11:58;7.19;84.98
65207;SHT31;58477;48.072;11.970;2023-11-18T11:14:33;7.59;84.69
65207;SHT31;58477;48.072;11.970;2023-11-18T11:17:06;8.13;82.22
65207;SHT31;58477;48.072;11.970;2023-11-18T11:19:50;9.00;82.43
65207;SHT31;58477;48.072;11.970;2023-11-18T11:22:31;9.76;78.67
65207;SHT31;58477;48.072;11.970;2023-11-18T11:25:10;11.54;75.32
65207;SHT31;58477;48.072;11.970;2023-11-18T11:27:52;11.07;73.53
65207;SHT31;58477;48.072;11.970;2023-11-18T11:30:33;10.97;73.18
65207;SHT31;58477;48.072;11.970;2023-11-18T11:33:32;10.95;74.91
65207;SHT31;58477;48.072;11.970;2023-11-18T11:36:07;10.62;72.80
65207;SHT31;58477;48.072;11.970;2023-11-18T11:38:37;9.98;74.54
65207;SHT31;58477;48.072;11.970;2023-11-18T11:41:04;8.89;76.80
65207;SHT31;58477;48.072;11.970;2023-11-18T11:43:30;8.37;79.56
65207;SHT31;58477;48.072;11.970;2023-11-18T11:46:01;8.23;78.93
65207;SHT31;58477;48.072;11.970;2023-11-18T11:48:35;8.38;79.06
65207;SHT31;58477;48.072;11.970;2023-11-18T11:53:55;8.24;82.62
65207;SHT31;58477;48.072;11.970;2023-11-18T11:56:38;7.82;82.85
65207;SHT31;58477;48.072;11.970;2023-11-18T11:59:04;7.84;82.81
65207;SHT31;58477;48.072;11.970;2023-11-18T12:01:36;8.00;83.35
65207;SHT31;58477;48.072;11.970;2023-11-18T12:04:09;7.49;84.31
65207;SHT31;58477;48.072;11.970;2023-11-18T12:06:47;7.56;83.82
65207;SHT31;58477;48.072;11.970;2023-11-18T12:09:16;7.56;85.34
65207;SHT31;58477;48.072;11.970;2023-11-18T12:11:48;7.56;85.00
65207;SHT31;58477;48.072;11.970;2023-11-18T12:14:17;7.80;84.19
65207;SHT31;58477;48.072;11.970;2023-11-18T12:17:05;7.39;83.94
65207;SHT31;58477;48.072;11.970;2023-11-18T12:19:43;7.76;83.44
65207;SHT31;58477;48.072;11.970;2023-11-18T12:47:02;7.89;83.11
65207;SHT31;58477;48.072;11.970;2023-11-18T12:49:44;7.84;81.41
65207;SHT31;58477;48.072;11.970;2023-11-18T12:52:15;7.83;81.70
65207;SHT31;58477;48.072;11.970;2023-11-18T12:54:44;7.95;82.33
65207;SHT31;58477;48.072;11.970;2023-11-18T12:57:10;7.79;81.95
65207;SHT31;58477;48.072;11.970;2023-11-18T12:59:40;7.73;82.54
65207;SHT31;58477;48.072;11.970;2023-11-18T13:02:09;7.87;81.62
65207;SHT31;58477;48.072;11.970;2023-11-18T13:04:40;7.72;81.06
65207;SHT31;58477;48.072;11.970;2023-11-18T13:07:06;7.66;80.90
65207;SHT31;58477;48.072;11.970;2023-11-18T13:09:34;7.91;81.42
65207;SHT31;58477;48.072;11.970;2023-11-18T13:12:02;8.18;81.02
65207;SHT31;58477;48.072;11.970;2023-11-18T13:14:31;8.45;81.83
65207;SHT31;58477;48.072;11.970;2023-11-18T13:17:04;8.38;80.44
65207;SHT31;58477;48.072;11.970;2023-11-18T13:19:31;8.30;79.94
65207;SHT31;58477;48.072;11.970;2023-11-18T13:22:09;8.18;79.79
65207;SHT31;58477;48.072;11.970;2023-11-18T13:24:38;8.15;79.98
65207;SHT31;58477;48.072;11.970;2023-11-18T13:27:09;7.97;80.21
65207;SHT31;58477;48.072;11.970;2023-11-18T13:29:36;7.89;79.82
65207;SHT31;58477;48.072;11.970;2023-11-18T13:32:05;7.58;81.12
65207;SHT31;58477;48.072;11.970;2023-11-18T13:34:35;7.53;83.61
65207;SHT31;58477;48.072;11.970;2023-11-18T13:37:06;7.26;85.02
65207;SHT31;58477;48.072;11.970;2023-11-18T13:39:33;7.01;84.04
65207;SHT31;58477;48.072;11.970;2023-11-18T13:42:18;6.85;83.44
65207;SHT31;58477;48.072;11.970;2023-11-18T13:44:43;6.75;84.86
65207;SHT31;58477;48.072;11.970;2023-11-18T13:47:12;6.71;84.52
65207;SHT31;58477;48.072;11.970;2023-11-18T13:49:39;6.68;86.28
65207;SHT31;58477;48.072;11.970;2023-11-18T13:52:06;6.65;86.69
65207;SHT31;58477;48.072;11.970;2023-11-18T13:54:35;6.60;86.85
65207;SHT31;58477;48.072;11.970;2023-11-18T13:57:01;6.55;87.15
65207;SHT31;58477;48.072;11.970;2023-11-18T13:59:29;6.61;86.39
65207;SHT31;58477;48.072;11.970;2023-11-18T14:01:55;6.57;86.15
65207;SHT31;58477;48.072;11.970;2023-11-18T14:04:27;6.55;86.60
65207;SHT31;58477;48.072;11.970;2023-11-18T14:06:57;6.60;85.73
65207;SHT31;58477;48.072;11.970;2023-11-18T14:09:22;6.68;85.26
65207;SHT31;58477;48.072;11.970;2023-11-18T14:11:54;6.80;85.05
65207;SHT31;58477;48.072;11.970;2023-11-18T14:14:25;6.84;83.90
65207;SHT31;58477;48.072;11.970;2023-11-18T14:16:52;6.87;84.09
65207;SHT31;58477;48.072;11.970;2023-11-18T14:19:25;6.73;84.95
65207;SHT31;58477;48.072;11.970;2023-11-18T14:21:51;6.73;85.43
65207;SHT31;58477;48.072;11.970;2023-11-18T14:24:17;6.75;84.78
65207;SHT31;58477;48.072;11.970;2023-11-18T14:26:43;6.68;87.21
65207;SHT31;58477;48.072;11.970;2023-11-18T14:29:09;6.73;87.23
65207;SHT31;58477;48.072;11.970;2023-11-18T14:31:37;6.75;87.58
65207;SHT31;58477;48.072;11.970;2023-11-18T14:34:03;6.75;87.37
65207;SHT31;58477;48.072;11.970;2023-11-18T14:36:29;6.73;87.24
65207;SHT31;58477;48.072;11.970;2023-11-18T14:38:55;6.85;87.95
65207;SHT31;58477;48.072;11.970;2023-11-18T14:41:21;6.81;87.63
65207;SHT31;58477;48.072;11.970;2023-11-18T14:43:51;6.71;89.08
65207;SHT31;58477;48.072;11.970;2023-11-18T14:46:16;6.50;88.78
65207;SHT31;58477;48.072;11.970;2023-11-18T14:48:41;6.34;88.01
65207;SHT31;58477;48.072;11.970;2023-11-18T14:51:07;6.23;89.62
65207;SHT31;58477;48.072;11.970;2023-11-18T14:53:33;6.09;89.97
65207;SHT31;58477;48.072;11.970;2023-11-18T14:56:01;5.83;90.22
65207;SHT31;58477;48.072;11.970;2023-11-18T14:58:30;5.72;91.15
65207;SHT31;58477;48.072;11.970;2023-11-18T15:00:55;5.56;91.37
65207;SHT31;58477;48.072;11.970;2023-11-18T15:03:22;5.46;90.89
65207;SHT31;58477;48.072;11.970;2023-11-18T15:05:48;5.27;91.23
65207;SHT31;58477;48.072;11.970;2023-11-18T15:08:13;5.12;91.89
65207;SHT31;58477;48.072;11.970;2023-11-18T15:10:41;5.11;92.63
65207;SHT31;58477;48.072;11.970;2023-11-18T15:13:12;5.07;92.40
65207;SHT31;58477;48.072;11.970;2023-11-18T15:15:41;5.12;91.62
65207;SHT31;58477;48.072;11.970;2023-11-18T15:18:07;5.14;91.27
65207;SHT31;58477;48.072;11.970;2023-11-18T15:20:43;5.11;91.67
65207;SHT31;58477;48.072;11.970;2023-11-18T15:23:12;5.14;92.10
65207;SHT31;58477;48.072;11.970;2023-11-18T15:25:38;5.12;92.45
65207;SHT31;58477;48.072;11.970;2023-11-18T15:28:05;5.15;92.16
65207;SHT31;58477;48.072;11.970;2023-11-18T15:30:36;5.15;92.30
65207;SHT31;58477;48.072;11.970;2023-11-18T15:33:02;5.10;92.19
65207;SHT31;58477;48.072;11.970;2023-11-18T15:35:28;5.25;91.77
65207;SHT31;58477;48.072;11.970;2023-11-18T15:37:54;5.32;91.88
65207;SHT31;58477;48.072;11.970;2023-11-18T15:40:20;5.24;92.03
65207;SHT31;58477;48.072;11.970;2023-11-18T15:42:50;5.04;92.61
65207;SHT31;58477;48.072;11.970;2023-11-18T15:45:19;5.00;92.64
65207;SHT31;58477;48.072;11.970;2023-11-18T15:47:46;5.04;93.34
65207;SHT31;58477;48.072;11.970;2023-11-18T15:50:14;5.14;92.91
65207;SHT31;58477;48.072;11.970;2023-11-18T15:52:45;5.11;92.59
65207;SHT31;58477;48.072;11.970;2023-11-18T15:55:13;5.24;91.67
65207;SHT31;58477;48.072;11.970;2023-11-18T15:57:47;5.41;91.07
65207;SHT31;58477;48.072;11.970;2023-11-18T16:00:16;5.45;90.60
65207;SHT31;58477;48.072;11.970;2023-11-18T16:02:45;5.45;90.18
65207;SHT31;58477;48.072;11.970;2023-11-18T16:05:18;5.36;90.13
65207;SHT31;58477;48.072;11.970;2023-11-18T16:07:46;5.41;90.51
65207;SHT31;58477;48.072;11.970;2023-11-18T16:10:14;5.30;91.33
65207;SHT31;58477;48.072;11.970;2023-11-18T16:12:47;5.07;92.14
65207;SHT31;58477;48.072;11.970;2023-11-18T16:15:14;5.00;92.64
65207;SHT31;58477;48.072;11.970;2023-11-18T16:17:41;4.95;93.32
65207;SHT31;58477;48.072;11.970;2023-11-18T16:20:07;4.91;93.40
65207;SHT31;58477;48.072;11.970;2023-11-18T16:22:34;5.00;93.09
65207;SHT31;58477;48.072;11.970;2023-11-18T16:25:00;5.04;93.48
65207;SHT31;58477;48.072;11.970;2023-11-18T16:27:26;5.04;92.94
65207;SHT31;58477;48.072;11.970;2023-11-18T16:29:51;5.02;93.08
65207;SHT31;58477;48.072;11.970;2023-11-18T16:32:17;4.90;92.99
65207;SHT31;58477;48.072;11.970;2023-11-18T16:34:42;5.00;93.52
65207;SHT31;58477;48.072;11.970;2023-11-18T16:37:08;4.94;93.28